sensor_id;sensor_type;location;lat;lon;timestamp;pressure;altitude;pressure_sealevel;temperature;humidity
74960;BME280;63518;49.572;1.106;2022-11-14T00:01:51;99336.44;;;9.65;78.64
74960;BME280;63518;49.572;1.106;2022-11-14T00:04:19;99312.56;;;9.45;80.16
74960;BME280;63518;49.572;1.106;2022-11-14T00:06:59;99383.88;;;9.91;79.68
74960;BME280;63518;49.572;1.106;2022-11-14T00:09:35;99341.63;;;9.67;80.87
74960;BME280;63518;49.572;1.106;2022-11-14T00:12:38;99316.66;;;9.63;79.85
74960;BME280;63518;49.572;1.106;2022-11-14T00:15:09;99337.50;;;9.69;80.62
74960;BME280;63518;49.572;1.106;2022-11-14T00:17:43;99325.72;;;9.74;80.22
74960;BME280;63518;49.572;1.106;2022-11-14T00:20:11;99298.47;;;9.93;78.14
74960;BME280;63518;49.572;1.106;2022-11-14T00:22:39;99311.44;;;9.67;78.82
74960;BME280;63518;49.572;1.106;2022-11-14T00:25:09;99350.06;;;10.01;78.61
74960;BME280;63518;49.572;1.106;2022-11-14T00:27:42;99348.16;;;10.06;79.10
74960;BME280;63518;49.572;1.106;2022-11-14T00:30:12;99313.09;;;9.58;79.83
74960;BME280;63518;49.572;1.106;2022-11-14T00:32:45;99290.34;;;9.57;80.70
74960;BME280;63518;49.572;1.106;2022-11-14T00:35:15;99264.53;;;9.58;79.66
74960;BME280;63518;49.572;1.106;2022-11-14T00:37:53;99287.19;;;10.04;78.36
74960;BME280;63518;49.572;1.106;2022-11-14T00:40:25;99279.28;;;9.88;77.67
74960;BME280;63518;49.572;1.106;2022-11-14T00:42:53;99258.72;;;9.70;77.99
74960;BME280;63518;49.572;1.106;2022-11-14T00:45:30;99262.63;;;9.38;79.86
74960;BME280;63518;49.572;1.106;2022-11-14T00:47:59;99282.38;;;9.50;79.95
74960;BME280;63518;49.572;1.106;2022-11-14T00:50:29;99256.84;;;9.45;78.76
74960;BME280;63518;49.572;1.106;2022-11-14T00:52:57;99314.13;;;9.97;78.91
74960;BME280;63518;49.572;1.106;2022-11-14T00:55:27;99295.78;;;9.62;78.92
74960;BME280;63518;49.572;1.106;2022-11-14T00:58:00;99253.34;;;9.04;80.57
74960;BME280;63518;49.572;1.106;2022-11-14T01:00:32;99330.94;;;9.60;81.52
74960;BME280;63518;49.572;1.106;2022-11-14T01:03:06;99314.22;;;9.41;82.11
74960;BME280;63518;49.572;1.106;2022-11-14T01:05:43;99264.56;;;8.92;82.81
74960;BME280;63518;49.572;1.106;2022-11-14T01:08:19;99289.78;;;9.50;79.11
74960;BME280;63518;49.572;1.106;2022-11-14T01:10:50;99286.22;;;9.39;80.36
74960;BME280;63518;49.572;1.106;2022-11-14T01:13:20;99285.13;;;9.30;81.30
74960;BME280;63518;49.572;1.106;2022-11-14T01:15:49;99280.47;;;9.20;80.59
74960;BME280;63518;49.572;1.106;2022-11-14T01:18:20;99252.50;;;9.08;80.49
74960;BME280;63518;49.572;1.106;2022-11-14T01:20:48;99298.06;;;9.25;81.02
74960;BME280;63518;49.572;1.106;2022-11-14T01:23:22;99275.47;;;9.73;79.20
74960;BME280;63518;49.572;1.106;2022-11-14T01:25:52;99282.09;;;9.57;80.88
74960;BME280;63518;49.572;1.106;2022-11-14T01:28:21;99289.25;;;9.48;79.16
74960;BME280;63518;49.572;1.106;2022-11-14T01:31:08;99253.00;;;9.46;78.99
74960;BME280;63518;49.572;1.106;2022-11-14T01:33:49;99241.50;;;9.49;77.87
74960;BME280;63518;49.572;1.106;2022-11-14T01:36:36;99305.38;;;9.75;79.97
74960;BME280;63518;49.572;1.106;2022-11-14T01:39:05;99281.28;;;9.57;79.10
74960;BME280;63518;49.572;1.106;2022-11-14T01:41:46;99229.47;;;9.19;78.01
74960;BME280;63518;49.572;1.106;2022-11-14T01:44:49;99285.34;;;9.79;78.19
74960;BME280;63518;49.572;1.106;2022-11-14T01:47:23;99253.59;;;8.92;80.89
74960;BME280;63518;49.572;1.106;2022-11-14T01:49:57;99220.72;;;8.66;80.84
74960;BME280;63518;49.572;1.106;2022-11-14T01:52:35;99224.00;;;8.84;80.80
74960;BME280;63518;49.572;1.106;2022-11-14T01:55:06;99216.59;;;8.84;80.78
74960;BME280;63518;49.572;1.106;2022-11-14T01:57:45;99218.78;;;9.08;79.76
74960;BME280;63518;49.572;1.106;2022-11-14T02:00:17;99215.78;;;8.94;81.26
74960;BME280;63518;49.572;1.106;2022-11-14T02:02:46;99264.88;;;8.95;80.48
74960;BME280;63518;49.572;1.106;2022-11-14T02:05:15;99218.50;;;8.68;80.42
74960;BME280;63518;49.572;1.106;2022-11-14T02:07:43;99274.72;;;9.12;80.81
74960;BME280;63518;49.572;1.106;2022-11-14T02:10:20;99203.69;;;9.20;78.14
74960;BME280;63518;49.572;1.106;2022-11-14T02:12:56;99203.44;;;8.97;78.95
74960;BME280;63518;49.572;1.106;2022-11-14T02:15:26;99228.38;;;9.20;78.69
74960;BME280;63518;49.572;1.106;2022-11-14T02:18:03;99234.72;;;9.01;78.43
74960;BME280;63518;49.572;1.106;2022-11-14T02:20:50;99268.69;;;9.00;80.18
74960;BME280;63518;49.572;1.106;2022-11-14T02:23:32;99264.84;;;9.06;78.56
74960;BME280;63518;49.572;1.106;2022-11-14T02:26:36;99207.53;;;8.68;80.78
74960;BME280;63518;49.572;1.106;2022-11-14T02:29:09;99206.75;;;8.73;79.57
74960;BME280;63518;49.572;1.106;2022-11-14T02:31:40;99213.31;;;8.72;80.29
74960;BME280;63518;49.572;1.106;2022-11-14T02:34:08;99247.31;;;8.97;79.35
74960;BME280;63518;49.572;1.106;2022-11-14T02:36:35;99229.75;;;9.18;77.91
74960;BME280;63518;49.572;1.106;2022-11-14T02:39:04;99200.69;;;8.66;80.32
74960;BME280;63518;49.572;1.106;2022-11-14T02:41:39;99227.56;;;8.89;78.28
74960;BME280;63518;49.572;1.106;2022-11-14T02:44:17;99218.53;;;8.89;79.81
74960;BME280;63518;49.572;1.106;2022-11-14T02:46:49;99198.78;;;8.82;79.13
74960;BME280;63518;49.572;1.106;2022-11-14T02:49:19;99221.81;;;8.86;80.00
74960;BME280;63518;49.572;1.106;2022-11-14T02:51:49;99200.69;;;8.51;80.79
74960;BME280;63518;49.572;1.106;2022-11-14T02:54:23;99210.56;;;8.87;79.34
74960;BME280;63518;49.572;1.106;2022-11-14T02:56:50;99186.72;;;8.47;79.90
74960;BME280;63518;49.572;1.106;2022-11-14T02:59:18;99196.78;;;8.26;80.89
74960;BME280;63518;49.572;1.106;2022-11-14T03:01:45;99195.78;;;8.73;80.15
74960;BME280;63518;49.572;1.106;2022-11-14T03:04:16;99224.53;;;8.76;79.97
74960;BME280;63518;49.572;1.106;2022-11-14T03:06:49;99244.56;;;9.07;79.20
74960;BME280;63518;49.572;1.106;2022-11-14T03:09:16;99216.03;;;8.47;81.48
74960;BME280;63518;49.572;1.106;2022-11-14T03:11:58;99200.59;;;8.20;80.51
74960;BME280;63518;49.572;1.106;2022-11-14T03:14:31;99246.13;;;8.36;81.38
74960;BME280;63518;49.572;1.106;2022-11-14T03:17:13;99227.53;;;8.38;80.63
74960;BME280;63518;49.572;1.106;2022-11-14T03:19:55;99225.63;;;8.49;81.01
74960;BME280;63518;49.572;1.106;2022-11-14T03:22:28;99212.22;;;8.63;79.67
74960;BME280;63518;49.572;1.106;2022-11-14T03:25:24;99239.06;;;9.22;78.32
74960;BME280;63518;49.572;1.106;2022-11-14T03:27:59;99193.03;;;8.68;80.25
74960;BME280;63518;49.572;1.106;2022-11-14T03:30:37;99187.72;;;8.21;81.34
74960;BME280;63518;49.572;1.106;2022-11-14T03:36:13;99196.25;;;8.29;80.47
74960;BME280;63518;49.572;1.106;2022-11-14T03:38:48;99233.28;;;8.52;82.45
74960;BME280;63518;49.572;1.106;2022-11-14T03:41:21;99211.56;;;8.15;82.22
74960;BME280;63518;49.572;1.106;2022-11-14T03:43:59;99183.28;;;7.94;81.68
74960;BME280;63518;49.572;1.106;2022-11-14T03:46:31;99177.00;;;7.94;82.55
74960;BME280;63518;49.572;1.106;2022-11-14T03:49:15;99199.84;;;8.35;83.07
74960;BME280;63518;49.572;1.106;2022-11-14T03:51:50;99230.03;;;8.71;81.73
74960;BME280;63518;49.572;1.106;2022-11-14T03:54:19;99194.34;;;8.30;82.31
74960;BME280;63518;49.572;1.106;2022-11-14T03:56:47;99222.63;;;8.46;82.26
74960;BME280;63518;49.572;1.106;2022-11-14T03:59:17;99227.00;;;8.57;81.75
74960;BME280;63518;49.572;1.106;2022-11-14T04:01:48;99187.81;;;8.41;82.15
74960;BME280;63518;49.572;1.106;2022-11-14T04:04:18;99171.09;;;8.48;81.09
74960;BME280;63518;49.572;1.106;2022-11-14T04:06:48;99197.97;;;8.71;79.24
74960;BME280;63518;49.572;1.106;2022-11-14T04:09:18;99193.28;;;8.97;78.44
74960;BME280;63518;49.572;1.106;2022-11-14T04:11:53;99155.44;;;8.18;80.54
74960;BME280;63518;49.572;1.106;2022-11-14T04:14:21;99189.47;;;8.73;81.22
74960;BME280;63518;49.572;1.106;2022-11-14T04:16:51;99208.38;;;8.89;79.75
74960;BME280;63518;49.572;1.106;2022-11-14T04:19:18;99176.84;;;8.41;79.61
74960;BME280;63518;49.572;1.106;2022-11-14T04:21:47;99219.34;;;8.69;80.90
74960;BME280;63518;49.572;1.106;2022-11-14T04:24:19;99233.00;;;8.38;81.21
74960;BME280;63518;49.572;1.106;2022-11-14T04:26:49;99188.28;;;8.28;80.91
74960;BME280;63518;49.572;1.106;2022-11-14T04:29:17;99201.78;;;8.60;80.33
74960;BME280;63518;49.572;1.106;2022-11-14T04:31:48;99201.19;;;8.22;81.55
74960;BME280;63518;49.572;1.106;2022-11-14T04:34:20;99177.41;;;8.43;80.52
74960;BME280;63518;49.572;1.106;2022-11-14T04:36:48;99186.16;;;8.50;80.92
74960;BME280;63518;49.572;1.106;2022-11-14T04:39:19;99134.34;;;8.33;81.60
74960;BME280;63518;49.572;1.106;2022-11-14T04:41:46;99170.53;;;8.61;79.45
74960;BME280;63518;49.572;1.106;2022-11-14T04:44:17;99152.19;;;8.66;79.48
74960;BME280;63518;49.572;1.106;2022-11-14T04:46:44;99130.50;;;8.29;79.63
74960;BME280;63518;49.572;1.106;2022-11-14T04:49:12;99125.56;;;8.21;79.71
74960;BME280;63518;49.572;1.106;2022-11-14T04:51:47;99187.56;;;8.73;80.46
74960;BME280;63518;49.572;1.106;2022-11-14T04:54:22;99147.50;;;8.31;81.17
74960;BME280;63518;49.572;1.106;2022-11-14T04:57:03;99173.25;;;8.30;81.03
74960;BME280;63518;49.572;1.106;2022-11-14T04:59:40;99130.78;;;8.28;80.31
74960;BME280;63518;49.572;1.106;2022-11-14T05:02:18;99164.81;;;8.73;80.31
74960;BME280;63518;49.572;1.106;2022-11-14T05:04:49;99163.69;;;8.68;80.17
74960;BME280;63518;49.572;1.106;2022-11-14T05:07:27;99156.84;;;8.66;79.19
74960;BME280;63518;49.572;1.106;2022-11-14T05:10:10;99136.28;;;8.68;79.84
74960;BME280;63518;49.572;1.106;2022-11-14T05:12:40;99127.56;;;8.61;79.52
74960;BME280;63518;49.572;1.106;2022-11-14T05:15:08;99116.28;;;8.78;78.75
74960;BME280;63518;49.572;1.106;2022-11-14T05:17:37;99140.69;;;8.49;79.12
74960;BME280;63518;49.572;1.106;2022-11-14T05:20:08;99154.13;;;8.86;78.46
74960;BME280;63518;49.572;1.106;2022-11-14T05:22:35;99122.06;;;8.61;79.34
74960;BME280;63518;49.572;1.106;2022-11-14T05:25:04;99093.53;;;8.73;77.57
74960;BME280;63518;49.572;1.106;2022-11-14T05:27:32;99113.00;;;8.71;77.17
74960;BME280;63518;49.572;1.106;2022-11-14T05:29:59;99102.56;;;8.83;76.34
74960;BME280;63518;49.572;1.106;2022-11-14T05:32:26;99094.94;;;8.65;78.02
74960;BME280;63518;49.572;1.106;2022-11-14T05:35:01;99109.16;;;8.82;77.01
74960;BME280;63518;49.572;1.106;2022-11-14T05:37:38;99141.97;;;9.13;76.63
74960;BME280;63518;49.572;1.106;2022-11-14T05:40:11;99135.72;;;9.02;76.26
74960;BME280;63518;49.572;1.106;2022-11-14T05:42:38;99086.13;;;8.83;76.63
74960;BME280;63518;49.572;1.106;2022-11-14T05:45:09;99122.00;;;8.97;76.73
74960;BME280;63518;49.572;1.106;2022-11-14T05:47:37;99091.91;;;8.66;78.76
74960;BME280;63518;49.572;1.106;2022-11-14T05:50:05;99068.34;;;8.60;76.74
74960;BME280;63518;49.572;1.106;2022-11-14T05:52:36;99055.75;;;8.44;78.80
74960;BME280;63518;49.572;1.106;2022-11-14T05:55:05;99097.13;;;8.58;78.71
74960;BME280;63518;49.572;1.106;2022-11-14T05:57:33;99082.84;;;8.20;80.35
74960;BME280;63518;49.572;1.106;2022-11-14T06:00:03;99053.28;;;8.12;80.47
74960;BME280;63518;49.572;1.106;2022-11-14T06:02:37;99095.78;;;8.40;79.33
74960;BME280;63518;49.572;1.106;2022-11-14T06:05:08;99056.84;;;7.92;78.78
74960;BME280;63518;49.572;1.106;2022-11-14T06:07:36;99086.16;;;8.07;80.56
74960;BME280;63518;49.572;1.106;2022-11-14T06:10:07;99133.84;;;8.57;80.30
74960;BME280;63518;49.572;1.106;2022-11-14T06:12:37;99088.38;;;8.41;78.80
74960;BME280;63518;49.572;1.106;2022-11-14T06:15:05;99075.47;;;8.56;76.81
74960;BME280;63518;49.572;1.106;2022-11-14T06:17:40;99110.56;;;8.70;77.35
74960;BME280;63518;49.572;1.106;2022-11-14T06:20:10;99054.91;;;8.13;79.21
74960;BME280;63518;49.572;1.106;2022-11-14T06:22:42;99076.03;;;8.48;75.66
74960;BME280;63518;49.572;1.106;2022-11-14T06:25:12;99072.47;;;8.48;76.46
74960;BME280;63518;49.572;1.106;2022-11-14T06:27:57;99061.50;;;8.22;78.40
74960;BME280;63518;49.572;1.106;2022-11-14T06:30:30;99050.53;;;8.27;77.16
74960;BME280;63518;49.572;1.106;2022-11-14T06:32:58;99094.38;;;8.63;76.08
74960;BME280;63518;49.572;1.106;2022-11-14T06:35:32;99109.19;;;8.57;78.21
74960;BME280;63518;49.572;1.106;2022-11-14T06:38:06;99049.72;;;8.17;76.73
74960;BME280;63518;49.572;1.106;2022-11-14T06:40:34;99075.47;;;8.10;78.04
74960;BME280;63518;49.572;1.106;2022-11-14T06:43:11;99058.50;;;8.08;78.39
74960;BME280;63518;49.572;1.106;2022-11-14T06:45:38;99054.38;;;7.91;79.74
74960;BME280;63518;49.572;1.106;2022-11-14T06:48:20;99064.09;;;7.41;80.38
74960;BME280;63518;49.572;1.106;2022-11-14T06:50:52;99117.31;;;7.96;80.83
74960;BME280;63518;49.572;1.106;2022-11-14T06:53:24;99127.22;;;8.27;79.74
74960;BME280;63518;49.572;1.106;2022-11-14T06:56:01;99080.91;;;8.05;78.91
74960;BME280;63518;49.572;1.106;2022-11-14T06:58:37;99098.72;;;7.93;80.28
74960;BME280;63518;49.572;1.106;2022-11-14T07:03:44;99057.34;;;7.59;80.53
74960;BME280;63518;49.572;1.106;2022-11-14T07:06:22;99118.19;;;8.06;78.87
74960;BME280;63518;49.572;1.106;2022-11-14T07:09:02;99088.31;;;7.84;80.21
74960;BME280;63518;49.572;1.106;2022-11-14T07:11:37;99089.88;;;7.65;80.08
74960;BME280;63518;49.572;1.106;2022-11-14T07:14:10;99083.88;;;7.63;80.60
74960;BME280;63518;49.572;1.106;2022-11-14T07:16:50;99079.69;;;7.40;81.86
74960;BME280;63518;49.572;1.106;2022-11-14T07:19:31;99070.78;;;7.75;78.47
74960;BME280;63518;49.572;1.106;2022-11-14T07:22:01;99101.94;;;7.64;80.74
74960;BME280;63518;49.572;1.106;2022-11-14T07:24:37;99154.94;;;7.48;82.44
74960;BME280;63518;49.572;1.106;2022-11-14T07:27:17;99116.50;;;7.90;80.50
74960;BME280;63518;49.572;1.106;2022-11-14T07:29:47;99074.59;;;7.74;79.82
74960;BME280;63518;49.572;1.106;2022-11-14T07:32:17;99103.69;;;8.06;76.96
74960;BME280;63518;49.572;1.106;2022-11-14T07:34:45;99113.78;;;8.05;77.90
74960;BME280;63518;49.572;1.106;2022-11-14T07:37:16;99117.78;;;7.57;80.99
74960;BME280;63518;49.572;1.106;2022-11-14T07:39:48;99107.50;;;8.00;79.09
74960;BME280;63518;49.572;1.106;2022-11-14T07:42:34;99089.38;;;7.89;77.95
74960;BME280;63518;49.572;1.106;2022-11-14T07:45:15;99087.44;;;7.74;79.81
74960;BME280;63518;49.572;1.106;2022-11-14T07:47:48;99089.97;;;7.91;78.91
74960;BME280;63518;49.572;1.106;2022-11-14T07:53:21;99095.94;;;7.72;80.19
74960;BME280;63518;49.572;1.106;2022-11-14T07:56:14;99086.94;;;7.87;79.33
74960;BME280;63518;49.572;1.106;2022-11-14T07:58:50;99060.94;;;8.05;77.83
74960;BME280;63518;49.572;1.106;2022-11-14T08:01:20;99056.03;;;7.92;77.33
74960;BME280;63518;49.572;1.106;2022-11-14T08:03:48;99118.22;;;8.52;76.79
74960;BME280;63518;49.572;1.106;2022-11-14T08:06:34;99081.75;;;8.21;76.99
74960;BME280;63518;49.572;1.106;2022-11-14T08:09:09;99113.84;;;8.72;76.63
74960;BME280;63518;49.572;1.106;2022-11-14T08:11:44;99120.38;;;8.20;79.09
74960;BME280;63518;49.572;1.106;2022-11-14T08:14:24;99061.22;;;8.24;77.85
74960;BME280;63518;49.572;1.106;2022-11-14T08:16:52;99042.53;;;7.49;80.10
74960;BME280;63518;49.572;1.106;2022-11-14T08:19:30;99073.25;;;7.97;79.52
74960;BME280;63518;49.572;1.106;2022-11-14T08:22:14;99107.81;;;8.44;78.69
74960;BME280;63518;49.572;1.106;2022-11-14T08:25:11;99099.31;;;8.51;77.87
74960;BME280;63518;49.572;1.106;2022-11-14T08:27:39;99054.09;;;7.87;78.42
74960;BME280;63518;49.572;1.106;2022-11-14T08:30:28;99043.97;;;7.98;79.23
74960;BME280;63518;49.572;1.106;2022-11-14T08:33:05;99059.31;;;8.14;79.65
74960;BME280;63518;49.572;1.106;2022-11-14T08:36:23;99048.88;;;7.86;79.36
74960;BME280;63518;49.572;1.106;2022-11-14T08:39:36;99031.91;;;8.04;80.17
74960;BME280;63518;49.572;1.106;2022-11-14T08:42:25;99107.53;;;8.51;80.40
74960;BME280;63518;49.572;1.106;2022-11-14T08:45:17;99039.88;;;8.10;79.97
74960;BME280;63518;49.572;1.106;2022-11-14T08:48:05;99045.63;;;8.14;80.11
74960;BME280;63518;49.572;1.106;2022-11-14T08:51:07;99042.38;;;8.37;79.32
74960;BME280;63518;49.572;1.106;2022-11-14T08:54:02;99034.94;;;8.23;80.93
74960;BME280;63518;49.572;1.106;2022-11-14T08:57:06;99048.09;;;8.31;79.61
74960;BME280;63518;49.572;1.106;2022-11-14T08:59:53;99064.22;;;8.53;79.46
74960;BME280;63518;49.572;1.106;2022-11-14T09:02:43;99094.91;;;8.75;80.00
74960;BME280;63518;49.572;1.106;2022-11-14T09:05:26;99018.50;;;8.48;80.31
74960;BME280;63518;49.572;1.106;2022-11-14T09:08:23;99080.13;;;8.71;81.56
74960;BME280;63518;49.572;1.106;2022-11-14T09:11:05;99051.56;;;8.82;81.10
74960;BME280;63518;49.572;1.106;2022-11-14T09:13:43;99077.84;;;9.09;79.77
74960;BME280;63518;49.572;1.106;2022-11-14T09:16:26;99019.41;;;9.13;78.01
74960;BME280;63518;49.572;1.106;2022-11-14T09:19:10;99043.09;;;9.48;77.03
74960;BME280;63518;49.572;1.106;2022-11-14T09:22:04;99051.81;;;9.56;76.46
74960;BME280;63518;49.572;1.106;2022-11-14T09:25:05;99009.59;;;8.92;80.39
74960;BME280;63518;49.572;1.106;2022-11-14T09:27:33;99010.75;;;8.86;79.91
74960;BME280;63518;49.572;1.106;2022-11-14T09:30:33;99072.13;;;8.95;81.49
74960;BME280;63518;49.572;1.106;2022-11-14T09:33:38;99009.28;;;9.04;81.04
74960;BME280;63518;49.572;1.106;2022-11-14T09:36:37;99036.78;;;9.48;78.93
74960;BME280;63518;49.572;1.106;2022-11-14T09:39:21;99044.78;;;9.84;77.38
74960;BME280;63518;49.572;1.106;2022-11-14T09:42:33;99058.81;;;9.82;79.34
74960;BME280;63518;49.572;1.106;2022-11-14T09:45:35;98996.97;;;9.50;78.91
74960;BME280;63518;49.572;1.106;2022-11-14T09:48:20;99027.38;;;9.59;80.66
74960;BME280;63518;49.572;1.106;2022-11-14T09:51:13;99008.03;;;9.79;79.97
74960;BME280;63518;49.572;1.106;2022-11-14T09:54:28;99045.31;;;9.86;80.22
74960;BME280;63518;49.572;1.106;2022-11-14T09:57:40;99015.28;;;9.99;79.64
74960;BME280;63518;49.572;1.106;2022-11-14T10:00:39;99017.91;;;9.81;80.55
74960;BME280;63518;49.572;1.106;2022-11-14T10:06:20;99064.47;;;10.64;79.43
74960;BME280;63518;49.572;1.106;2022-11-14T10:09:33;99070.59;;;10.56;79.09
74960;BME280;63518;49.572;1.106;2022-11-14T10:12:59;99007.72;;;10.49;78.65
74960;BME280;63518;49.572;1.106;2022-11-14T10:15:40;99069.88;;;10.74;79.54
74960;BME280;63518;49.572;1.106;2022-11-14T10:25:20;99084.41;;;10.80;80.20
74960;BME280;63518;49.572;1.106;2022-11-14T10:35:18;99011.22;;;11.08;77.46
74960;BME280;63518;49.572;1.106;2022-11-14T10:38:14;99055.53;;;10.82;79.40
74960;BME280;63518;49.572;1.106;2022-11-14T10:41:11;99019.59;;;10.45;78.67
74960;BME280;63518;49.572;1.106;2022-11-14T10:44:35;99036.88;;;11.46;76.64
74960;BME280;63518;49.572;1.106;2022-11-14T10:47:17;99018.34;;;11.09;77.13
74960;BME280;63518;49.572;1.106;2022-11-14T11:00:52;99062.56;;;11.79;75.96
74960;BME280;63518;49.572;1.106;2022-11-14T11:03:46;99011.44;;;11.54;76.25
74960;BME280;63518;49.572;1.106;2022-11-14T11:06:27;99012.00;;;11.51;77.16
74960;BME280;63518;49.572;1.106;2022-11-14T11:09:33;99026.81;;;12.12;76.39
74960;BME280;63518;49.572;1.106;2022-11-14T11:15:47;98996.59;;;12.07;75.75
74960;BME280;63518;49.572;1.106;2022-11-14T11:19:22;98999.69;;;11.86;76.32
74960;BME280;63518;49.572;1.106;2022-11-14T11:21:53;99040.31;;;11.94;76.96
74960;BME280;63518;49.572;1.106;2022-11-14T11:24:37;99018.44;;;12.03;76.14
74960;BME280;63518;49.572;1.106;2022-11-14T11:27:23;99039.69;;;12.16;76.46
74960;BME280;63518;49.572;1.106;2022-11-14T11:30:18;98997.66;;;11.92;77.33
74960;BME280;63518;49.572;1.106;2022-11-14T11:33:23;98984.78;;;11.87;77.31
74960;BME280;63518;49.572;1.106;2022-11-14T11:36:16;98986.13;;;12.22;76.31
74960;BME280;63518;49.572;1.106;2022-11-14T11:39:13;98994.38;;;12.69;75.40
74960;BME280;63518;49.572;1.106;2022-11-14T11:41:59;99002.47;;;12.93;74.65
74960;BME280;63518;49.572;1.106;2022-11-14T11:44:53;98970.25;;;12.33;75.44
74960;BME280;63518;49.572;1.106;2022-11-14T11:48:02;98976.25;;;12.35;75.90
74960;BME280;63518;49.572;1.106;2022-11-14T11:50:38;98954.72;;;12.37;76.23
74960;BME280;63518;49.572;1.106;2022-11-14T11:53:25;99004.31;;;13.25;74.02
74960;BME280;63518;49.572;1.106;2022-11-14T11:56:34;98980.94;;;13.58;72.56
74960;BME280;63518;49.572;1.106;2022-11-14T12:00:00;98986.09;;;13.10;75.19
74960;BME280;63518;49.572;1.106;2022-11-14T12:02:39;98946.56;;;13.01;74.48
74960;BME280;63518;49.572;1.106;2022-11-14T12:11:58;98989.31;;;13.67;73.57
74960;BME280;63518;49.572;1.106;2022-11-14T12:14:57;98978.75;;;14.36;71.34
74960;BME280;63518;49.572;1.106;2022-11-14T12:30:18;98930.44;;;14.65;69.48
74960;BME280;63518;49.572;1.106;2022-11-14T12:33:01;98911.75;;;14.39;71.09
74960;BME280;63518;49.572;1.106;2022-11-14T12:36:07;98963.81;;;15.17;68.71
74960;BME280;63518;49.572;1.106;2022-11-14T12:42:30;98946.78;;;15.49;68.42
74960;BME280;63518;49.572;1.106;2022-11-14T12:54:45;98938.50;;;15.67;68.35
74960;BME280;63518;49.572;1.106;2022-11-14T12:57:39;98887.56;;;15.02;69.07
74960;BME280;63518;49.572;1.106;2022-11-14T13:00:55;98921.66;;;15.28;69.33
74960;BME280;63518;49.572;1.106;2022-11-14T13:15:57;98917.44;;;14.74;70.12
74960;BME280;63518;49.572;1.106;2022-11-14T13:34:58;98865.97;;;13.93;72.47
74960;BME280;63518;49.572;1.106;2022-11-14T13:37:47;98904.88;;;14.37;72.03
74960;BME280;63518;49.572;1.106;2022-11-14T13:44:03;98898.06;;;14.74;70.44
74960;BME280;63518;49.572;1.106;2022-11-14T13:53:29;98883.41;;;14.65;72.80
74960;BME280;63518;49.572;1.106;2022-11-14T13:56:35;98843.53;;;14.66;71.75
74960;BME280;63518;49.572;1.106;2022-11-14T14:08:02;98889.63;;;14.79;71.39
74960;BME280;63518;49.572;1.106;2022-11-14T14:14:22;98886.13;;;15.22;69.50
74960;BME280;63518;49.572;1.106;2022-11-14T14:17:15;98845.53;;;15.00;70.04
74960;BME280;63518;49.572;1.106;2022-11-14T14:23:07;98885.31;;;15.47;70.08
74960;BME280;63518;49.572;1.106;2022-11-14T14:33:14;98896.00;;;14.88;70.41
74960;BME280;63518;49.572;1.106;2022-11-14T14:35:59;98846.09;;;14.54;70.95
74960;BME280;63518;49.572;1.106;2022-11-14T14:38:33;98864.31;;;14.46;72.48
74960;BME280;63518;49.572;1.106;2022-11-14T14:41:03;98858.22;;;14.44;71.08
74960;BME280;63518;49.572;1.106;2022-11-14T14:43:57;98858.16;;;14.27;72.62
74960;BME280;63518;49.572;1.106;2022-11-14T14:46:34;98847.97;;;14.05;71.45
74960;BME280;63518;49.572;1.106;2022-11-14T14:49:30;98849.78;;;14.09;72.61
74960;BME280;63518;49.572;1.106;2022-11-14T14:52:00;98874.22;;;14.16;73.53
74960;BME280;63518;49.572;1.106;2022-11-14T14:54:57;98846.84;;;14.06;73.81
74960;BME280;63518;49.572;1.106;2022-11-14T14:57:51;98816.03;;;13.59;75.22
74960;BME280;63518;49.572;1.106;2022-11-14T15:00:26;98821.63;;;13.99;73.43
74960;BME280;63518;49.572;1.106;2022-11-14T15:03:00;98831.75;;;14.12;71.36
74960;BME280;63518;49.572;1.106;2022-11-14T15:05:36;98827.16;;;13.67;74.03
74960;BME280;63518;49.572;1.106;2022-11-14T15:08:13;98829.34;;;14.19;72.89
74960;BME280;63518;49.572;1.106;2022-11-14T15:10:58;98808.25;;;13.92;74.12
74960;BME280;63518;49.572;1.106;2022-11-14T15:13:41;98824.84;;;13.92;74.25
74960;BME280;63518;49.572;1.106;2022-11-14T15:16:12;98857.22;;;14.00;73.67
74960;BME280;63518;49.572;1.106;2022-11-14T15:19:12;98853.13;;;13.97;75.47
74960;BME280;63518;49.572;1.106;2022-11-14T15:21:43;98841.47;;;14.01;74.24
74960;BME280;63518;49.572;1.106;2022-11-14T15:27:10;98831.97;;;13.62;75.57
74960;BME280;63518;49.572;1.106;2022-11-14T15:30:06;98811.06;;;13.47;75.63
74960;BME280;63518;49.572;1.106;2022-11-14T15:33:30;98796.91;;;13.40;74.83
74960;BME280;63518;49.572;1.106;2022-11-14T15:36:09;98862.03;;;13.63;76.37
74960;BME280;63518;49.572;1.106;2022-11-14T15:39:00;98814.97;;;13.24;76.02
74960;BME280;63518;49.572;1.106;2022-11-14T15:41:37;98842.59;;;13.68;75.19
74960;BME280;63518;49.572;1.106;2022-11-14T15:44:35;98842.69;;;13.63;75.63
74960;BME280;63518;49.572;1.106;2022-11-14T15:47:33;98864.25;;;13.75;76.12
74960;BME280;63518;49.572;1.106;2022-11-14T15:50:24;98859.97;;;13.47;76.13
74960;BME280;63518;49.572;1.106;2022-11-14T15:53:05;98836.13;;;13.28;77.60
74960;BME280;63518;49.572;1.106;2022-11-14T15:55:35;98807.25;;;13.34;76.27
74960;BME280;63518;49.572;1.106;2022-11-14T15:58:16;98869.34;;;13.59;75.89
74960;BME280;63518;49.572;1.106;2022-11-14T16:01:02;98856.06;;;13.48;75.52
74960;BME280;63518;49.572;1.106;2022-11-14T16:03:44;98806.38;;;13.25;75.72
74960;BME280;63518;49.572;1.106;2022-11-14T16:06:14;98863.16;;;13.40;76.87
74960;BME280;63518;49.572;1.106;2022-11-14T16:08:43;98827.66;;;13.11;77.44
74960;BME280;63518;49.572;1.106;2022-11-14T16:11:22;98828.66;;;13.15;76.55
74960;BME280;63518;49.572;1.106;2022-11-14T16:14:07;98856.19;;;13.65;75.40
74960;BME280;63518;49.572;1.106;2022-11-14T16:16:41;98843.06;;;13.26;77.65
74960;BME280;63518;49.572;1.106;2022-11-14T16:19:14;98807.91;;;13.18;75.32
74960;BME280;63518;49.572;1.106;2022-11-14T16:21:57;98805.09;;;12.95;77.21
74960;BME280;63518;49.572;1.106;2022-11-14T16:24:53;98798.03;;;12.80;78.66
74960;BME280;63518;49.572;1.106;2022-11-14T16:27:27;98795.72;;;12.96;77.37
74960;BME280;63518;49.572;1.106;2022-11-14T16:29:57;98813.34;;;13.09;78.31
74960;BME280;63518;49.572;1.106;2022-11-14T16:32:27;98807.50;;;13.10;78.28